createdAt,value
2018-12-23T00:09:41.053Z,3.70
2018-12-23T00:12:09.510Z,3.70
2018-12-23T00:31:40.285Z,3.70
2018-12-23T00:50:58.161Z,3.70
2018-12-23T00:57:37.259Z,3.70
2018-12-23T01:00:06.668Z,3.70
2018-12-23T01:02:35.188Z,3.70
2018-12-23T01:05:04.269Z,3.60
2018-12-23T01:07:32.691Z,3.70
2018-12-23T01:10:01.187Z,3.70
2018-12-23T01:12:29.740Z,3.60
2018-12-23T01:14:58.232Z,3.60
2018-12-23T01:17:26.792Z,3.60
2018-12-23T01:19:55.270Z,3.60
2018-12-23T01:22:23.793Z,3.60
2018-12-23T01:24:52.602Z,3.60
2018-12-23T01:27:21.058Z,3.60
2018-12-23T01:29:49.772Z,3.60
2018-12-23T01:32:18.292Z,3.60
2018-12-23T01:34:47.057Z,3.50
2018-12-23T01:37:15.521Z,3.50
2018-12-23T01:39:43.998Z,3.50
2018-12-23T01:42:12.477Z,3.50
2018-12-23T01:44:41.239Z,3.50
2018-12-23T01:47:09.673Z,3.50
2018-12-23T01:49:38.161Z,3.50
2018-12-23T01:52:06.606Z,3.50
2018-12-23T01:54:35.357Z,3.50
2018-12-23T01:57:03.829Z,3.50
2018-12-23T01:59:32.633Z,3.50
2018-12-23T02:02:01.084Z,3.50
2018-12-23T02:04:29.577Z,3.40
2018-12-23T02:06:58.016Z,3.40
2018-12-23T02:09:26.523Z,3.40
2018-12-23T02:11:54.961Z,3.40
2018-12-23T02:14:23.729Z,3.40
2018-12-23T02:16:52.174Z,3.40
2018-12-23T02:19:20.812Z,3.40
2018-12-23T02:21:49.259Z,3.40
2018-12-23T02:24:17.869Z,3.40
2018-12-23T02:26:46.330Z,3.40
2018-12-23T02:29:15.163Z,3.30
2018-12-23T02:31:43.608Z,3.40
2018-12-23T02:34:12.079Z,3.40
2018-12-23T02:36:40.536Z,3.30
2018-12-23T02:39:09.396Z,3.30
2018-12-23T02:41:37.826Z,3.30
2018-12-23T02:44:06.432Z,3.30
2018-12-23T02:46:34.877Z,3.30
2018-12-23T02:49:03.375Z,3.30
2018-12-23T02:51:31.999Z,3.30
2018-12-23T02:54:00.728Z,3.30
2018-12-23T02:56:29.190Z,3.30
2018-12-23T02:58:57.649Z,3.30
2018-12-23T03:01:26.171Z,3.30
2018-12-23T03:03:54.649Z,3.30
2018-12-23T03:06:23.190Z,3.20
2018-12-23T03:08:51.651Z,3.30
2018-12-23T03:11:20.106Z,3.20
2018-12-23T03:13:48.674Z,3.20
2018-12-23T03:16:17.171Z,3.20
2018-12-23T03:18:45.984Z,3.20
2018-12-23T03:21:14.507Z,3.20
2018-12-23T03:23:42.990Z,3.20
2018-12-23T03:26:11.447Z,3.20
2018-12-23T03:28:39.898Z,3.20
2018-12-23T03:31:08.345Z,3.20
2018-12-23T03:33:37.100Z,3.20
2018-12-23T03:36:14.755Z,3.20
2018-12-23T03:38:36.312Z,3.20
2018-12-23T03:41:04.796Z,3.20
2018-12-23T03:43:33.341Z,3.20
2018-12-23T03:46:01.834Z,3.20
2018-12-23T03:48:30.566Z,3.20
2018-12-23T03:50:59.001Z,3.20
2018-12-23T03:53:27.563Z,3.20
2018-12-23T03:55:55.986Z,3.20
2018-12-23T03:58:24.540Z,3.20
2018-12-23T04:00:53.008Z,3.20
2018-12-23T04:03:21.476Z,3.20
2018-12-23T04:05:50.025Z,3.20
2018-12-23T04:08:18.699Z,3.20
2018-12-23T04:10:47.126Z,3.20
2018-12-23T04:13:15.600Z,3.20
2018-12-23T04:15:44.057Z,3.20
2018-12-23T04:18:12.687Z,3.20
2018-12-23T04:20:41.148Z,3.20
2018-12-23T04:23:09.899Z,3.20
2018-12-23T04:25:38.347Z,3.20
2018-12-23T04:28:06.826Z,3.20
2018-12-23T04:30:35.349Z,3.20
2018-12-23T04:33:04.142Z,3.20
2018-12-23T04:35:32.586Z,3.20
2018-12-23T04:38:01.337Z,3.20
2018-12-23T04:40:29.766Z,3.10
2018-12-23T04:42:58.511Z,3.20
2018-12-23T04:45:26.975Z,3.20
2018-12-23T04:47:55.434Z,3.20
2018-12-23T04:50:23.877Z,3.20
2018-12-23T04:52:52.327Z,3.20
2018-12-23T04:55:20.773Z,3.20
2018-12-23T04:57:49.227Z,3.10
2018-12-23T05:00:17.725Z,3.20
2018-12-23T05:02:46.201Z,3.20
2018-12-23T05:05:14.744Z,3.20
2018-12-23T05:07:43.463Z,3.10
2018-12-23T05:10:11.908Z,3.10
2018-12-23T05:12:40.384Z,3.10
2018-12-23T05:15:08.823Z,3.10
2018-12-23T05:17:37.276Z,3.10
2018-12-23T05:20:05.738Z,3.10
2018-12-23T05:22:34.366Z,3.10
2018-12-23T05:25:02.835Z,3.10
2018-12-23T05:27:31.303Z,3.10
2018-12-23T05:29:59.779Z,3.10
2018-12-23T05:32:28.353Z,3.10
2018-12-23T05:34:56.794Z,3.10
2018-12-23T05:37:25.282Z,3.10
2018-12-23T05:39:53.734Z,3.10
2018-12-23T05:42:22.370Z,3.10
2018-12-23T05:44:50.819Z,3.10
2018-12-23T05:47:19.628Z,3.10
2018-12-23T05:49:48.216Z,3.10
2018-12-23T05:52:16.699Z,3.10
2018-12-23T05:54:45.138Z,3.10
2018-12-23T05:57:13.872Z,3.10
2018-12-23T05:59:42.326Z,3.10
2018-12-23T06:02:10.770Z,3.10
2018-12-23T06:04:39.200Z,3.10
2018-12-23T06:07:07.636Z,3.10
2018-12-23T06:09:36.103Z,3.10
2018-12-23T06:12:04.562Z,3.10
2018-12-23T06:14:33.028Z,3.10
2018-12-23T06:17:01.485Z,3.00
2018-12-23T06:19:30.466Z,3.10
2018-12-23T06:21:58.940Z,3.10
2018-12-23T06:24:27.415Z,3.10
2018-12-23T06:26:56.552Z,3.10
2018-12-23T06:29:25.287Z,3.10
2018-12-23T06:31:53.730Z,3.10
2018-12-23T06:34:22.593Z,3.10
2018-12-23T06:36:51.067Z,3.10
2018-12-23T06:39:19.524Z,3.10
2018-12-23T06:41:48.072Z,3.10
2018-12-23T06:44:16.557Z,3.10
2018-12-23T06:46:45.003Z,3.10
2018-12-23T06:49:13.522Z,3.10
2018-12-23T06:51:42.338Z,3.10
2018-12-23T06:54:11.083Z,3.10
2018-12-23T06:56:39.620Z,3.10
2018-12-23T06:59:08.074Z,3.10
2018-12-23T07:01:36.519Z,3.10
2018-12-23T07:04:05.086Z,3.10
2018-12-23T07:06:33.543Z,3.10
2018-12-23T07:09:02.309Z,3.10
2018-12-23T07:11:30.746Z,3.10
2018-12-23T07:13:59.486Z,3.10
2018-12-23T07:16:27.948Z,3.10
2018-12-23T07:18:56.675Z,3.10
2018-12-23T07:21:25.127Z,3.10
2018-12-23T07:23:53.607Z,3.10
2018-12-23T07:26:22.136Z,3.10
2018-12-23T07:28:50.913Z,3.10
2018-12-23T07:31:19.392Z,3.10
2018-12-23T07:33:47.910Z,3.10
2018-12-23T07:36:16.533Z,3.10
2018-12-23T07:38:45.032Z,3.10
2018-12-23T07:41:13.476Z,3.10
2018-12-23T07:43:42.212Z,3.10
2018-12-23T07:46:10.658Z,3.10
2018-12-23T07:48:39.493Z,3.10
2018-12-23T07:51:07.968Z,3.10
2018-12-23T07:53:36.765Z,3.10
2018-12-23T07:56:05.352Z,3.10
2018-12-23T07:58:33.946Z,3.10
2018-12-23T08:01:02.523Z,3.10
2018-12-23T08:03:31.374Z,3.10
2018-12-23T08:05:59.900Z,3.10
2018-12-23T08:08:28.414Z,3.10
2018-12-23T08:10:56.968Z,3.10
2018-12-23T08:13:25.628Z,3.10
2018-12-23T08:15:54.137Z,3.10
2018-12-23T08:18:22.577Z,3.10
2018-12-23T08:20:51.024Z,3.10
2018-12-23T08:23:19.924Z,3.10
2018-12-23T08:25:48.389Z,3.10
2018-12-23T08:28:16.854Z,3.10
2018-12-23T08:30:45.279Z,3.00
2018-12-23T08:33:13.730Z,3.10
2018-12-23T08:35:42.209Z,3.10
2018-12-23T08:38:10.649Z,3.10
2018-12-23T08:40:39.518Z,3.10
2018-12-23T08:43:07.932Z,3.10
2018-12-23T08:45:36.433Z,3.20
2018-12-23T08:48:04.968Z,3.30
2018-12-23T08:50:33.641Z,3.20
2018-12-23T08:53:02.085Z,3.40
2018-12-23T08:55:30.846Z,3.40
2018-12-23T08:57:59.296Z,3.50
2018-12-23T09:00:27.746Z,3.50
2018-12-23T09:02:56.474Z,3.60
2018-12-23T09:05:25.113Z,3.60
2018-12-23T09:07:53.585Z,3.60
2018-12-23T09:10:22.024Z,3.70
2018-12-23T09:12:50.486Z,3.80
2018-12-23T09:15:18.939Z,3.80
2018-12-23T09:17:47.431Z,3.80
2018-12-23T09:20:15.926Z,3.80
2018-12-23T09:22:44.693Z,3.70
2018-12-23T09:25:13.162Z,3.70
2018-12-23T09:27:41.990Z,3.70
2018-12-23T09:30:10.423Z,3.70
2018-12-23T09:32:38.962Z,3.70
2018-12-23T09:35:07.514Z,3.60
2018-12-23T09:37:36.203Z,3.60
2018-12-23T09:40:04.829Z,3.60
2018-12-23T09:42:33.360Z,3.60
2018-12-23T09:45:01.809Z,3.60
2018-12-23T09:47:30.281Z,3.50
2018-12-23T09:49:58.819Z,3.60
2018-12-23T09:52:27.291Z,3.50
2018-12-23T09:54:55.897Z,3.60
2018-12-23T09:57:24.745Z,3.60
2018-12-23T09:59:53.485Z,3.60
2018-12-23T10:02:22.046Z,3.60
2018-12-23T10:04:51.089Z,3.60
2018-12-23T10:07:19.844Z,3.70
2018-12-23T10:09:48.332Z,3.70
2018-12-23T10:12:17.097Z,3.70
2018-12-23T10:14:45.592Z,3.70
2018-12-23T10:17:14.477Z,3.70
2018-12-23T10:19:43.024Z,3.70
2018-12-23T10:22:11.588Z,3.70
2018-12-23T10:24:40.043Z,3.70
2018-12-23T10:27:08.611Z,3.80
2018-12-23T10:29:37.088Z,3.70
2018-12-23T10:32:05.791Z,3.70
2018-12-23T10:34:34.349Z,3.80
2018-12-23T10:37:02.830Z,3.80
2018-12-23T10:39:31.298Z,3.80
2018-12-23T10:41:59.751Z,3.70
2018-12-23T10:44:28.226Z,3.70
2018-12-23T10:46:57.021Z,3.80
2018-12-23T10:49:25.700Z,3.80
2018-12-23T10:51:54.315Z,3.90
2018-12-23T10:54:23.165Z,3.90
2018-12-23T10:56:51.821Z,3.90
2018-12-23T10:59:20.443Z,3.90
2018-12-23T11:01:48.911Z,4.00
2018-12-23T11:04:17.734Z,4.00
2018-12-23T11:06:46.333Z,4.00
2018-12-23T11:09:14.924Z,4.10
2018-12-23T11:11:43.524Z,4.10
2018-12-23T11:14:12.028Z,4.00
2018-12-23T11:16:40.703Z,4.00
2018-12-23T11:19:09.566Z,4.10
2018-12-23T11:21:38.150Z,4.10
2018-12-23T11:24:06.776Z,4.10
2018-12-23T11:26:35.294Z,4.20
2018-12-23T11:29:03.935Z,4.10
2018-12-23T11:31:32.520Z,4.20
2018-12-23T11:34:01.296Z,4.20
2018-12-23T11:36:29.901Z,4.20
2018-12-23T11:38:58.421Z,4.30
2018-12-23T11:41:26.956Z,4.30
2018-12-23T11:43:55.761Z,4.40
2018-12-23T11:46:24.933Z,4.40
2018-12-23T11:48:53.580Z,4.40
2018-12-23T11:51:22.331Z,4.40
2018-12-23T11:53:51.098Z,4.40
2018-12-23T11:56:19.522Z,4.40
2018-12-23T11:58:48.273Z,4.40
2018-12-23T12:01:16.855Z,4.40
2018-12-23T12:03:45.323Z,4.40
2018-12-23T12:06:13.876Z,4.40
2018-12-23T12:08:43.817Z,4.40
2018-12-23T12:11:12.605Z,4.40
2018-12-23T12:13:41.163Z,4.50
2018-12-23T12:16:09.656Z,4.50
2018-12-23T12:18:39.667Z,4.50
2018-12-23T12:21:08.925Z,4.50
2018-12-23T12:23:37.679Z,4.50
2018-12-23T12:26:06.131Z,4.50
2018-12-23T12:28:35.030Z,4.60
2018-12-23T12:31:03.503Z,4.60
2018-12-23T12:33:32.327Z,4.60
2018-12-23T12:36:00.777Z,4.60
2018-12-23T12:38:29.556Z,4.70
2018-12-23T12:40:58.019Z,4.70
2018-12-23T12:43:26.726Z,4.70
2018-12-23T12:46:00.529Z,4.70
2018-12-23T12:48:25.810Z,4.70
2018-12-23T12:50:54.427Z,4.80
2018-12-23T12:53:22.990Z,4.80
2018-12-23T12:55:51.614Z,4.80
2018-12-23T12:58:20.081Z,4.80
2018-12-23T13:00:48.712Z,4.80
2018-12-23T13:03:17.499Z,4.80
2018-12-23T13:05:46.017Z,4.80
2018-12-23T13:08:14.481Z,4.80
2018-12-23T13:10:42.938Z,4.90
2018-12-23T13:13:11.746Z,4.90
2018-12-23T13:15:40.406Z,5.00
2018-12-23T13:18:09.252Z,5.00
2018-12-23T13:20:37.676Z,5.00
2018-12-23T13:23:06.162Z,5.10
2018-12-23T13:25:34.591Z,5.10
2018-12-23T13:28:03.242Z,5.10
2018-12-23T13:30:31.732Z,5.20
2018-12-23T13:33:00.632Z,5.30
2018-12-23T13:35:29.108Z,5.40
2018-12-23T13:37:57.647Z,5.40
2018-12-23T13:40:40.774Z,5.40
2018-12-23T13:43:18.224Z,5.40
2018-12-23T13:46:07.284Z,5.40
2018-12-23T13:48:58.356Z,5.40
2018-12-23T13:52:09.090Z,5.30
2018-12-23T13:54:56.895Z,5.40
2018-12-23T13:59:06.018Z,5.40
2018-12-23T14:02:24.114Z,5.30
2018-12-23T14:05:59.402Z,5.20
2018-12-23T14:09:17.092Z,5.20
2018-12-23T14:11:52.827Z,5.20
2018-12-23T14:14:21.696Z,5.30
2018-12-23T14:16:50.264Z,5.30
2018-12-23T14:19:18.770Z,5.30
2018-12-23T14:21:47.290Z,5.30
2018-12-23T14:24:15.847Z,5.20
2018-12-23T14:26:44.311Z,5.20
2018-12-23T14:29:13.040Z,5.20
2018-12-23T14:31:41.598Z,5.30
2018-12-23T14:34:10.051Z,5.30
2018-12-23T14:36:38.544Z,5.30
2018-12-23T14:39:08.391Z,5.40
2018-12-23T14:41:36.838Z,5.30
2018-12-23T14:44:05.566Z,5.30
2018-12-23T14:46:34.085Z,5.40
2018-12-23T14:49:02.867Z,5.30
2018-12-23T14:51:31.384Z,5.20
2018-12-23T14:53:59.995Z,5.30
2018-12-23T14:56:28.724Z,5.10
2018-12-23T14:58:57.332Z,5.20
2018-12-23T15:01:25.852Z,5.20
2018-12-23T15:03:54.439Z,5.30
2018-12-23T15:06:23.171Z,5.20
2018-12-23T15:08:51.781Z,5.20
2018-12-23T15:11:20.308Z,5.20
2018-12-23T15:13:49.182Z,5.20
2018-12-23T15:16:17.765Z,5.20
2018-12-23T15:18:47.316Z,5.20
2018-12-23T15:21:15.943Z,5.20
2018-12-23T15:23:44.624Z,5.20
2018-12-23T15:26:13.182Z,5.20
2018-12-23T15:28:41.895Z,5.10
2018-12-23T15:31:10.454Z,5.10
2018-12-23T15:33:39.416Z,5.20
2018-12-23T15:36:07.935Z,5.20
2018-12-23T15:38:36.844Z,5.10
2018-12-23T15:41:05.323Z,5.20
2018-12-23T15:43:33.972Z,5.10
2018-12-23T15:46:02.483Z,5.10
2018-12-23T15:48:31.022Z,5.10
2018-12-23T15:50:59.478Z,5.10
2018-12-23T15:53:28.185Z,5.20
2018-12-23T15:55:56.638Z,5.20
2018-12-23T15:58:25.345Z,5.20
2018-12-23T16:00:54.018Z,5.20
2018-12-23T16:03:22.566Z,5.10
2018-12-23T16:05:51.092Z,5.20
2018-12-23T16:08:19.742Z,5.20
2018-12-23T16:10:48.261Z,5.20
2018-12-23T16:13:17.059Z,5.20
2018-12-23T16:15:45.532Z,5.20
2018-12-23T16:18:14.043Z,5.10
2018-12-23T16:20:42.507Z,5.10
2018-12-23T16:23:11.325Z,5.10
2018-12-23T16:25:39.770Z,5.20
2018-12-23T16:28:08.674Z,5.30
2018-12-23T16:30:37.434Z,5.10
2018-12-23T16:33:06.191Z,5.20
2018-12-23T16:35:34.742Z,5.20
2018-12-23T16:38:03.466Z,5.20
2018-12-23T16:40:31.872Z,5.20
2018-12-23T16:43:00.734Z,5.20
2018-12-23T16:45:29.193Z,5.20
2018-12-23T16:47:57.794Z,5.10
2018-12-23T16:50:26.489Z,5.10
2018-12-23T16:52:55.424Z,5.00
2018-12-23T16:55:24.149Z,5.00
2018-12-23T16:57:52.978Z,5.00
2018-12-23T17:00:21.414Z,5.00
2018-12-23T17:02:49.939Z,5.00
2018-12-23T17:05:18.414Z,4.90
2018-12-23T17:07:47.412Z,4.90
2018-12-23T17:10:15.865Z,4.90
2018-12-23T17:12:44.646Z,4.90
2018-12-23T17:15:13.063Z,4.90
2018-12-23T17:17:41.728Z,4.90
2018-12-23T17:20:12.901Z,4.90
2018-12-23T17:22:41.823Z,4.90
2018-12-23T17:25:10.472Z,4.90
2018-12-23T17:27:39.307Z,4.80
2018-12-23T17:30:08.552Z,4.80
2018-12-23T17:32:37.072Z,4.80
2018-12-23T17:35:05.717Z,4.80
2018-12-23T17:37:41.362Z,4.80
2018-12-23T17:40:16.429Z,4.80
2018-12-23T17:42:40.562Z,4.80
2018-12-23T17:45:09.280Z,4.80
2018-12-23T17:47:37.863Z,4.80
2018-12-23T17:50:07.569Z,4.80
2018-12-23T17:52:36.537Z,4.80
2018-12-23T17:55:05.254Z,4.80
2018-12-23T17:57:33.830Z,4.80
2018-12-23T18:00:02.498Z,4.80
2018-12-23T18:02:31.357Z,4.80
2018-12-23T18:04:59.951Z,4.80
2018-12-23T18:07:28.771Z,4.80
2018-12-23T18:09:57.539Z,4.80
2018-12-23T18:12:26.035Z,4.80
2018-12-23T18:14:54.665Z,4.80
2018-12-23T18:17:23.798Z,4.70
2018-12-23T18:19:52.482Z,4.70
2018-12-23T18:22:21.235Z,4.70
2018-12-23T18:24:49.930Z,4.70
2018-12-23T18:27:18.511Z,4.70
2018-12-23T18:29:47.146Z,4.70
2018-12-23T18:32:15.983Z,4.70
2018-12-23T18:34:44.635Z,4.70
2018-12-23T18:37:13.379Z,4.70
2018-12-23T18:39:41.858Z,4.70
2018-12-23T18:42:10.813Z,4.70
2018-12-23T18:44:39.474Z,4.70
2018-12-23T18:47:08.243Z,4.70
2018-12-23T18:49:37.101Z,4.70
2018-12-23T18:52:05.775Z,4.70
2018-12-23T18:54:34.373Z,4.70
2018-12-23T18:57:06.862Z,4.70
2018-12-23T18:59:39.969Z,4.70
2018-12-23T19:02:11.671Z,4.70
2018-12-23T19:04:40.277Z,4.70
2018-12-23T19:07:09.192Z,4.70
2018-12-23T19:09:48.294Z,4.70
2018-12-23T19:13:32.930Z,4.70
2018-12-23T19:16:26.944Z,4.70
2018-12-23T19:41:13.023Z,4.70
2018-12-23T19:43:51.615Z,4.70
2018-12-23T19:48:34.830Z,4.70
2018-12-23T19:52:22.091Z,4.70
2018-12-23T19:57:15.078Z,4.70
2018-12-23T20:00:24.903Z,4.70
2018-12-23T20:03:02.269Z,4.70
2018-12-23T20:05:56.974Z,4.70
2018-12-23T20:09:12.759Z,4.70
2018-12-23T20:11:52.791Z,4.70
2018-12-23T20:14:38.314Z,4.70
2018-12-23T20:18:19.479Z,4.70
2018-12-23T20:20:59.630Z,4.70
2018-12-23T20:25:46.652Z,4.70
2018-12-23T20:29:28.190Z,4.70
2018-12-23T20:33:17.370Z,4.70
2018-12-23T20:37:00.453Z,4.70
2018-12-23T20:41:43.195Z,4.70
2018-12-23T20:44:58.834Z,4.70
2018-12-23T20:49:44.317Z,4.70
2018-12-23T20:52:39.676Z,4.70
2018-12-23T20:55:23.555Z,4.60
2018-12-23T20:59:09.708Z,4.60
2018-12-23T21:01:59.406Z,4.60
2018-12-23T21:04:42.178Z,4.60
2018-12-23T21:07:40.548Z,4.70
2018-12-23T21:11:32.118Z,4.60
2018-12-23T21:14:24.646Z,4.60
2018-12-23T21:17:34.312Z,4.60
2018-12-23T21:20:15.977Z,4.60
2018-12-23T21:22:54.467Z,4.60
2018-12-23T21:27:45.008Z,4.60
2018-12-23T21:30:30.161Z,4.60
2018-12-23T21:35:26.447Z,4.60
2018-12-23T21:38:12.165Z,4.60
2018-12-23T21:40:47.926Z,4.60
2018-12-23T21:44:02.670Z,4.60
2018-12-23T21:48:47.872Z,4.60
2018-12-23T21:51:27.124Z,4.60
2018-12-23T21:54:22.735Z,4.60
2018-12-23T21:57:02.748Z,4.60
2018-12-23T21:59:54.146Z,4.60
2018-12-23T22:02:34.627Z,4.60
2018-12-23T22:05:12.243Z,4.60
2018-12-23T22:07:57.930Z,4.60
2018-12-23T22:10:36.788Z,4.60
2018-12-23T22:13:36.473Z,4.60
2018-12-23T22:16:05.079Z,4.60
2018-12-23T22:18:33.587Z,4.60
2018-12-23T22:21:02.221Z,4.60
2018-12-23T22:23:31.049Z,4.60
2018-12-23T22:26:02.634Z,4.60
2018-12-23T22:28:31.137Z,4.60
2018-12-23T22:30:59.761Z,4.60
2018-12-23T22:33:28.434Z,4.60
2018-12-23T22:35:57.061Z,4.60
2018-12-23T22:38:25.774Z,4.60
2018-12-23T22:40:58.571Z,4.60
2018-12-23T22:43:27.080Z,4.60
2018-12-23T22:45:55.517Z,4.60
2018-12-23T22:48:24.227Z,4.60
2018-12-23T22:50:52.801Z,4.60
2018-12-23T22:53:21.571Z,4.60
2018-12-23T22:55:50.132Z,4.60
2018-12-23T22:58:19.154Z,4.60
2018-12-23T23:00:47.637Z,4.50
2018-12-23T23:03:16.371Z,4.50
2018-12-23T23:05:44.933Z,4.50
2018-12-23T23:08:13.794Z,4.50
2018-12-23T23:10:42.415Z,4.50
2018-12-23T23:13:18.582Z,4.50
2018-12-23T23:15:41.737Z,4.50
2018-12-23T23:18:10.410Z,4.50
2018-12-23T23:20:38.994Z,4.50
2018-12-23T23:23:07.506Z,4.50
2018-12-23T23:25:36.035Z,4.50
2018-12-23T23:28:04.819Z,4.50
2018-12-23T23:30:33.301Z,4.50
2018-12-23T23:33:02.117Z,4.50
2018-12-23T23:35:30.563Z,4.50
2018-12-23T23:37:59.059Z,4.50
2018-12-23T23:40:27.493Z,4.50
2018-12-23T23:42:56.220Z,4.50
2018-12-23T23:45:24.661Z,4.50
2018-12-23T23:47:53.120Z,4.50
2018-12-23T23:50:21.584Z,4.50
2018-12-23T23:52:50.274Z,4.50
2018-12-23T23:55:18.782Z,4.50
2018-12-23T23:57:47.275Z,4.50
